sensor_id;sensor_type;location;lat;lon;timestamp;pressure;altitude;pressure_sealevel;temperature;humidity
48800;BME280;34611;47.964;7.982;2023-05-10T00:05:57;96321.84;;;12.95;68.32
48800;BME280;34611;47.964;7.982;2023-05-10T00:12:57;96320.25;;;12.94;68.06
48800;BME280;34611;47.964;7.982;2023-05-10T00:19:58;96324.66;;;12.94;68.32
48800;BME280;34611;47.964;7.982;2023-05-10T00:26:58;96330.69;;;12.94;68.23
48800;BME280;34611;47.964;7.982;2023-05-10T00:33:58;96317.63;;;12.94;68.13
48800;BME280;34611;47.964;7.982;2023-05-10T00:40:59;96319.25;;;12.95;68.28
48800;BME280;34611;47.964;7.982;2023-05-10T00:48:03;96314.22;;;12.94;68.13
48800;BME280;34611;47.964;7.982;2023-05-10T00:55:04;96328.88;;;12.95;68.16
48800;BME280;34611;47.964;7.982;2023-05-10T01:02:05;96320.25;;;12.94;68.23
48800;BME280;34611;47.964;7.982;2023-05-10T01:09:06;96328.88;;;12.95;68.20
48800;BME280;34611;47.964;7.982;2023-05-10T01:16:07;96332.28;;;12.95;68.28
48800;BME280;34611;47.964;7.982;2023-05-10T01:23:21;96329.69;;;12.95;68.28
48800;BME280;34611;47.964;7.982;2023-05-10T01:37:45;96341.91;;;12.95;67.98
48800;BME280;34611;47.964;7.982;2023-05-10T01:45:07;96341.91;;;12.95;68.29
48800;BME280;34611;47.964;7.982;2023-05-10T01:52:15;96354.16;;;12.94;68.35
48800;BME280;34611;47.964;7.982;2023-05-10T01:59:18;96353.16;;;12.95;68.40
48800;BME280;34611;47.964;7.982;2023-05-10T02:06:20;96351.53;;;12.94;68.27
48800;BME280;34611;47.964;7.982;2023-05-10T02:13:20;96349.75;;;12.95;68.12
48800;BME280;34611;47.964;7.982;2023-05-10T02:20:21;96362.78;;;12.95;68.08
48800;BME280;34611;47.964;7.982;2023-05-10T02:27:22;96362.78;;;12.95;68.32
48800;BME280;34611;47.964;7.982;2023-05-10T02:34:25;96369.81;;;12.94;68.16
48800;BME280;34611;47.964;7.982;2023-05-10T02:41:26;96371.44;;;12.95;68.28
48800;BME280;34611;47.964;7.982;2023-05-10T02:48:27;96362.78;;;12.95;68.24
48800;BME280;34611;47.964;7.982;2023-05-10T02:55:33;96365.41;;;12.95;68.27
48800;BME280;34611;47.964;7.982;2023-05-10T03:02:35;96374.88;;;12.96;68.29
48800;BME280;34611;47.964;7.982;2023-05-10T03:09:36;96377.63;;;12.94;68.28
48800;BME280;34611;47.964;7.982;2023-05-10T03:16:40;96384.47;;;12.95;68.16
48800;BME280;34611;47.964;7.982;2023-05-10T03:23:46;96387.09;;;12.95;68.29
48800;BME280;34611;47.964;7.982;2023-05-10T03:30:48;96393.28;;;12.94;68.25
48800;BME280;34611;47.964;7.982;2023-05-10T03:37:49;96388.88;;;12.95;68.10
48800;BME280;34611;47.964;7.982;2023-05-10T03:44:50;96390.69;;;12.94;68.09
48800;BME280;34611;47.964;7.982;2023-05-10T03:51:51;96387.09;;;12.95;68.26
48800;BME280;34611;47.964;7.982;2023-05-10T03:58:51;96387.09;;;12.95;68.26
48800;BME280;34611;47.964;7.982;2023-05-10T04:05:58;96389.69;;;12.95;68.23
48800;BME280;34611;47.964;7.982;2023-05-10T04:12:59;96379.25;;;12.95;68.20
48800;BME280;34611;47.964;7.982;2023-05-10T04:19:59;96385.31;;;12.96;68.23
48800;BME280;34611;47.964;7.982;2023-05-10T04:26:59;96386.28;;;12.95;68.12
48800;BME280;34611;47.964;7.982;2023-05-10T04:34:00;96384.47;;;12.95;68.15
48800;BME280;34611;47.964;7.982;2023-05-10T04:41:07;96385.31;;;12.96;68.12
48800;BME280;34611;47.964;7.982;2023-05-10T04:48:08;96401.94;;;12.95;68.33
48800;BME280;34611;47.964;7.982;2023-05-10T04:55:08;96405.34;;;12.95;68.16
48800;BME280;34611;47.964;7.982;2023-05-10T05:02:09;96403.72;;;12.94;68.14
48800;BME280;34611;47.964;7.982;2023-05-10T05:09:10;96414.16;;;12.94;68.09
48800;BME280;34611;47.964;7.982;2023-05-10T05:16:10;96418.56;;;12.94;68.26
48800;BME280;34611;47.964;7.982;2023-05-10T05:23:11;96421.84;;;12.96;68.14
48800;BME280;34611;47.964;7.982;2023-05-10T05:30:11;96426.22;;;12.95;68.04
48800;BME280;34611;47.964;7.982;2023-05-10T05:37:15;96431.44;;;12.95;68.02
48800;BME280;34611;47.964;7.982;2023-05-10T05:44:16;96432.28;;;12.96;68.02
48800;BME280;34611;47.964;7.982;2023-05-10T05:51:16;96440.91;;;12.96;68.24
48800;BME280;34611;47.964;7.982;2023-05-10T05:58:17;96444.47;;;12.95;68.09
48800;BME280;34611;47.964;7.982;2023-05-10T06:05:17;96449.69;;;12.95;68.06
48800;BME280;34611;47.964;7.982;2023-05-10T06:12:17;96463.59;;;12.96;68.20
48800;BME280;34611;47.964;7.982;2023-05-10T06:19:18;96461.94;;;12.95;68.08
48800;BME280;34611;47.964;7.982;2023-05-10T06:26:18;96468.94;;;12.94;68.11
48800;BME280;34611;47.964;7.982;2023-05-10T06:33:18;96470.56;;;12.95;68.38
48800;BME280;34611;47.964;7.982;2023-05-10T06:40:18;96466.34;;;12.94;68.17
48800;BME280;34611;47.964;7.982;2023-05-10T06:47:19;96476.63;;;12.96;68.13
48800;BME280;34611;47.964;7.982;2023-05-10T06:54:19;96470.75;;;12.94;68.31
48800;BME280;34611;47.964;7.982;2023-05-10T07:01:19;96476.78;;;12.94;68.25
48800;BME280;34611;47.964;7.982;2023-05-10T07:08:20;96483.63;;;12.95;68.19
48800;BME280;34611;47.964;7.982;2023-05-10T07:15:20;96490.63;;;12.95;68.23
48800;BME280;34611;47.964;7.982;2023-05-10T07:22:20;96488.03;;;12.95;68.21
48800;BME280;34611;47.964;7.982;2023-05-10T07:29:20;96489.81;;;12.94;68.16
48800;BME280;34611;47.964;7.982;2023-05-10T07:36:21;96508.09;;;12.94;68.14
48800;BME280;34611;47.964;7.982;2023-05-10T07:43:21;96517.53;;;12.95;68.25
48800;BME280;34611;47.964;7.982;2023-05-10T07:50:21;96519.31;;;12.95;68.35
48800;BME280;34611;47.964;7.982;2023-05-10T07:57:21;96512.50;;;12.94;68.18
48800;BME280;34611;47.964;7.982;2023-05-10T08:04:22;96517.53;;;12.95;68.32
48800;BME280;34611;47.964;7.982;2023-05-10T08:11:22;96516.72;;;12.95;68.16
48800;BME280;34611;47.964;7.982;2023-05-10T08:18:23;96517.72;;;12.94;68.09
48800;BME280;34611;47.964;7.982;2023-05-10T08:25:23;96508.09;;;12.94;68.26
48800;BME280;34611;47.964;7.982;2023-05-10T08:32:23;96511.50;;;12.95;68.21
48800;BME280;34611;47.964;7.982;2023-05-10T08:39:23;96512.50;;;12.94;68.18
48800;BME280;34611;47.964;7.982;2023-05-10T08:46:25;96513.31;;;12.94;68.24
48800;BME280;34611;47.964;7.982;2023-05-10T08:53:26;96514.09;;;12.95;68.32
48800;BME280;34611;47.964;7.982;2023-05-10T09:00:28;96502.88;;;12.94;68.31
48800;BME280;34611;47.964;7.982;2023-05-10T09:07:28;96510.69;;;12.94;68.16
48800;BME280;34611;47.964;7.982;2023-05-10T09:14:29;96505.47;;;12.94;68.28
48800;BME280;34611;47.964;7.982;2023-05-10T09:21:30;96514.91;;;12.95;68.11
48800;BME280;34611;47.964;7.982;2023-05-10T09:28:32;96530.56;;;12.95;68.03
48800;BME280;34611;47.964;7.982;2023-05-10T09:35:32;96525.34;;;12.95;68.21
48800;BME280;34611;47.964;7.982;2023-05-10T09:42:33;96539.38;;;12.94;68.36
48800;BME280;34611;47.964;7.982;2023-05-10T09:49:34;96544.59;;;12.94;68.16
48800;BME280;34611;47.964;7.982;2023-05-10T09:56:35;96548.03;;;12.95;68.29
48800;BME280;34611;47.964;7.982;2023-05-10T10:03:40;96553.25;;;12.95;68.10
48800;BME280;34611;47.964;7.982;2023-05-10T10:10:41;96549.00;;;12.94;68.31
48800;BME280;34611;47.964;7.982;2023-05-10T10:17:44;96556.66;;;12.95;68.01
48800;BME280;34611;47.964;7.982;2023-05-10T10:24:45;96553.25;;;12.95;68.15
48800;BME280;34611;47.964;7.982;2023-05-10T10:31:47;96560.25;;;12.94;68.18
48800;BME280;34611;47.964;7.982;2023-05-10T10:38:58;96556.84;;;12.94;68.28
48800;BME280;34611;47.964;7.982;2023-05-10T10:46:15;96556.66;;;12.95;68.11
48800;BME280;34611;47.964;7.982;2023-05-10T10:53:17;96548.03;;;12.95;68.29
48800;BME280;34611;47.964;7.982;2023-05-10T11:00:18;96548.03;;;12.95;68.34
48800;BME280;34611;47.964;7.982;2023-05-10T11:07:19;96544.59;;;12.94;68.26
48800;BME280;34611;47.964;7.982;2023-05-10T11:14:20;96540.19;;;12.95;68.25
48800;BME280;34611;47.964;7.982;2023-05-10T11:21:22;96544.47;;;12.96;68.09
48800;BME280;34611;47.964;7.982;2023-05-10T11:28:22;96551.44;;;12.95;68.13
48800;BME280;34611;47.964;7.982;2023-05-10T11:35:23;96550.63;;;12.95;68.41
48800;BME280;34611;47.964;7.982;2023-05-10T11:42:23;96542.00;;;12.94;68.05
48800;BME280;34611;47.964;7.982;2023-05-10T11:49:23;96541.00;;;12.95;68.05
48800;BME280;34611;47.964;7.982;2023-05-10T11:56:25;96546.22;;;12.95;68.09
48800;BME280;34611;47.964;7.982;2023-05-10T12:03:27;96546.91;;;12.98;68.11
48800;BME280;34611;47.964;7.982;2023-05-10T12:10:27;96549.81;;;12.94;68.29
48800;BME280;34611;47.964;7.982;2023-05-10T12:17:28;96542.00;;;12.94;68.12
48800;BME280;34611;47.964;7.982;2023-05-10T12:24:29;96529.75;;;12.95;68.16
48800;BME280;34611;47.964;7.982;2023-05-10T12:31:29;96536.63;;;12.96;68.13
48800;BME280;34611;47.964;7.982;2023-05-10T12:38:32;96517.53;;;12.95;68.26
48800;BME280;34611;47.964;7.982;2023-05-10T12:45:32;96522.75;;;12.95;68.26
48800;BME280;34611;47.964;7.982;2023-05-10T12:52:33;96546.22;;;12.95;68.15
48800;BME280;34611;47.964;7.982;2023-05-10T12:59:33;96567.09;;;12.95;68.25
48800;BME280;34611;47.964;7.982;2023-05-10T13:06:33;96564.50;;;12.95;68.09
48800;BME280;34611;47.964;7.982;2023-05-10T13:13:35;96570.69;;;12.94;68.03
48800;BME280;34611;47.964;7.982;2023-05-10T13:20:35;96570.69;;;12.94;68.29
48800;BME280;34611;47.964;7.982;2023-05-10T13:27:35;96577.53;;;12.95;68.28
48800;BME280;34611;47.964;7.982;2023-05-10T13:34:35;96582.75;;;12.95;68.24
48800;BME280;34611;47.964;7.982;2023-05-10T13:41:36;96572.31;;;12.95;68.11
48800;BME280;34611;47.964;7.982;2023-05-10T13:48:37;96566.28;;;12.95;68.29
48800;BME280;34611;47.964;7.982;2023-05-10T13:55:37;96560.13;;;12.96;67.97
48800;BME280;34611;47.964;7.982;2023-05-10T14:02:37;96543.63;;;12.95;68.14
48800;BME280;34611;47.964;7.982;2023-05-10T14:09:37;96544.47;;;12.96;68.26
48800;BME280;34611;47.964;7.982;2023-05-10T14:16:38;96556.66;;;12.95;68.14
48800;BME280;34611;47.964;7.982;2023-05-10T14:23:38;96565.34;;;12.96;68.18
48800;BME280;34611;47.964;7.982;2023-05-10T14:30:39;96561.06;;;12.95;68.12
48800;BME280;34611;47.964;7.982;2023-05-10T14:37:39;96567.94;;;12.96;68.02
48800;BME280;34611;47.964;7.982;2023-05-10T14:44:39;96567.94;;;12.96;68.21
48800;BME280;34611;47.964;7.982;2023-05-10T14:51:40;96554.06;;;12.95;68.26
48800;BME280;34611;47.964;7.982;2023-05-10T14:58:40;96553.25;;;12.95;68.07
48800;BME280;34611;47.964;7.982;2023-05-10T15:05:40;96555.72;;;12.96;68.26
48800;BME280;34611;47.964;7.982;2023-05-10T15:12:41;96551.44;;;12.95;68.23
48800;BME280;34611;47.964;7.982;2023-05-10T15:19:41;96542.66;;;12.96;68.12
48800;BME280;34611;47.964;7.982;2023-05-10T15:26:42;96548.84;;;12.95;68.29
48800;BME280;34611;47.964;7.982;2023-05-10T15:33:42;96558.31;;;12.96;68.40
48800;BME280;34611;47.964;7.982;2023-05-10T15:40:42;96542.81;;;12.95;68.16
48800;BME280;34611;47.964;7.982;2023-05-10T15:47:42;96553.53;;;13.10;68.08
48800;BME280;34611;47.964;7.982;2023-05-10T15:54:44;96550.34;;;12.98;68.40
48800;BME280;34611;47.964;7.982;2023-05-10T16:01:44;96559.13;;;12.97;68.54
48800;BME280;34611;47.964;7.982;2023-05-10T16:08:44;96571.22;;;12.98;68.44
48800;BME280;34611;47.964;7.982;2023-05-10T16:15:45;96563.53;;;12.96;68.23
48800;BME280;34611;47.964;7.982;2023-05-10T16:22:45;96566.81;;;12.99;68.49
48800;BME280;34611;47.964;7.982;2023-05-10T16:29:46;96562.56;;;12.98;68.45
48800;BME280;34611;47.964;7.982;2023-05-10T16:36:46;96553.09;;;12.96;68.51
48800;BME280;34611;47.964;7.982;2023-05-10T16:43:47;96549.69;;;12.96;68.42
48800;BME280;34611;47.964;7.982;2023-05-10T16:50:47;96556.53;;;12.97;68.30
48800;BME280;34611;47.964;7.982;2023-05-10T16:57:47;96562.56;;;12.98;68.51
48800;BME280;34611;47.964;7.982;2023-05-10T17:04:48;96578.22;;;12.98;68.45
48800;BME280;34611;47.964;7.982;2023-05-10T17:11:48;96586.03;;;12.98;68.49
48800;BME280;34611;47.964;7.982;2023-05-10T17:18:49;96588.50;;;12.99;68.28
48800;BME280;34611;47.964;7.982;2023-05-10T17:25:49;96602.53;;;12.98;68.47
48800;BME280;34611;47.964;7.982;2023-05-10T17:32:49;96590.31;;;12.99;68.36
48800;BME280;34611;47.964;7.982;2023-05-10T17:39:50;96587.69;;;12.99;68.53
48800;BME280;34611;47.964;7.982;2023-05-10T17:46:50;96592.91;;;12.99;68.51
48800;BME280;34611;47.964;7.982;2023-05-10T17:53:50;96589.50;;;12.98;68.53
48800;BME280;34611;47.964;7.982;2023-05-10T18:00:51;96598.13;;;12.99;68.60
48800;BME280;34611;47.964;7.982;2023-05-10T18:07:51;96593.72;;;12.99;68.64
48800;BME280;34611;47.964;7.982;2023-05-10T18:14:52;96604.16;;;12.99;68.59
48800;BME280;34611;47.964;7.982;2023-05-10T18:21:52;96598.94;;;12.99;68.59
48800;BME280;34611;47.964;7.982;2023-05-10T18:28:52;96602.38;;;13.00;68.59
48800;BME280;34611;47.964;7.982;2023-05-10T18:35:53;96609.59;;;13.06;68.41
48800;BME280;34611;47.964;7.982;2023-05-10T18:42:53;96611.84;;;13.01;68.63
48800;BME280;34611;47.964;7.982;2023-05-10T18:49:54;96625.84;;;13.00;68.57
48800;BME280;34611;47.964;7.982;2023-05-10T18:56:54;96624.09;;;13.00;68.75
48800;BME280;34611;47.964;7.982;2023-05-10T19:03:56;96630.25;;;12.99;68.66
48800;BME280;34611;47.964;7.982;2023-05-10T19:10:56;96635.31;;;13.01;68.52
48800;BME280;34611;47.964;7.982;2023-05-10T19:17:56;96649.31;;;13.00;68.59
48800;BME280;34611;47.964;7.982;2023-05-10T19:24:57;96655.38;;;13.00;68.69
48800;BME280;34611;47.964;7.982;2023-05-10T19:31:57;96662.38;;;13.00;68.58
48800;BME280;34611;47.964;7.982;2023-05-10T19:38:57;96664.97;;;13.00;68.73
48800;BME280;34611;47.964;7.982;2023-05-10T19:45:58;96667.59;;;13.00;68.68
48800;BME280;34611;47.964;7.982;2023-05-10T19:52:58;96657.16;;;13.00;68.52
48800;BME280;34611;47.964;7.982;2023-05-10T19:59:59;96667.59;;;13.00;68.65
48800;BME280;34611;47.964;7.982;2023-05-10T20:06:59;96669.25;;;13.01;68.75
48800;BME280;34611;47.964;7.982;2023-05-10T20:14:00;96659.63;;;13.01;68.55
48800;BME280;34611;47.964;7.982;2023-05-10T20:21:00;96658.00;;;13.00;68.74
48800;BME280;34611;47.964;7.982;2023-05-10T20:28:00;96665.97;;;12.99;68.77
48800;BME280;34611;47.964;7.982;2023-05-10T20:35:01;96661.56;;;12.99;68.70
48800;BME280;34611;47.964;7.982;2023-05-10T20:42:01;96665.81;;;13.00;68.58
48800;BME280;34611;47.964;7.982;2023-05-10T20:49:01;96670.06;;;13.01;68.64
48800;BME280;34611;47.964;7.982;2023-05-10T20:56:01;96660.59;;;13.00;68.56
48800;BME280;34611;47.964;7.982;2023-05-10T21:03:02;96659.75;;;13.00;68.69
48800;BME280;34611;47.964;7.982;2023-05-10T21:10:02;96658.81;;;13.01;68.55
48800;BME280;34611;47.964;7.982;2023-05-10T21:17:02;96662.38;;;13.00;68.54
48800;BME280;34611;47.964;7.982;2023-05-10T21:24:03;96653.59;;;13.01;68.74
48800;BME280;34611;47.964;7.982;2023-05-10T21:31:03;96652.78;;;13.00;68.77
48800;BME280;34611;47.964;7.982;2023-05-10T21:38:03;96659.63;;;13.01;68.58
48800;BME280;34611;47.964;7.982;2023-05-10T21:45:04;96651.94;;;13.00;68.58
48800;BME280;34611;47.964;7.982;2023-05-10T21:52:04;96653.59;;;13.01;68.55
48800;BME280;34611;47.964;7.982;2023-05-10T21:59:06;96652.78;;;13.00;68.68
48800;BME280;34611;47.964;7.982;2023-05-10T22:06:06;96659.75;;;13.00;68.48
48800;BME280;34611;47.964;7.982;2023-05-10T22:13:07;96665.81;;;13.00;68.63
48800;BME280;34611;47.964;7.982;2023-05-10T22:20:07;96662.25;;;13.01;68.69
48800;BME280;34611;47.964;7.982;2023-05-10T22:27:08;96661.41;;;13.01;68.79
48800;BME280;34611;47.964;7.982;2023-05-10T22:34:08;96672.66;;;13.01;68.74
48800;BME280;34611;47.964;7.982;2023-05-10T22:41:08;96663.22;;;13.00;68.61
48800;BME280;34611;47.964;7.982;2023-05-10T22:48:09;96662.25;;;13.01;68.70
48800;BME280;34611;47.964;7.982;2023-05-10T22:55:09;96658.00;;;13.00;68.73
48800;BME280;34611;47.964;7.982;2023-05-10T23:02:09;96658.00;;;13.00;68.55
48800;BME280;34611;47.964;7.982;2023-05-10T23:09:10;96664.84;;;13.01;68.58
48800;BME280;34611;47.964;7.982;2023-05-10T23:16:10;96656.22;;;13.01;68.54
48800;BME280;34611;47.964;7.982;2023-05-10T23:23:11;96654.41;;;13.01;68.75
48800;BME280;34611;47.964;7.982;2023-05-10T23:30:11;96657.16;;;13.00;68.83
48800;BME280;34611;47.964;7.982;2023-05-10T23:37:11;96658.81;;;13.01;68.64
48800;BME280;34611;47.964;7.982;2023-05-10T23:44:11;96661.28;;;13.02;68.81
48800;BME280;34611;47.964;7.982;2023-05-10T23:51:12;96653.59;;;13.01;68.61
48800;BME280;34611;47.964;7.982;2023-05-10T23:58:12;96651.94;;;13.00;68.68
